Time;durP1;ratioP1;P1;durP2;ratioP2;P2;SDS_P1;SDS_P2;PMS_P1;PMS_P2;Temp;Humidity;BMP_temperature;BMP_pressure;BME280_temperature;BME280_humidity;BME280_pressure;Samples;Min_cycle;Max_cycle;Signal;HPM_P1;HPM_P2
2023/04/25 00:01:09;;;;;;;3.27;2.40;;;13.10;82.10;;;;;;6084738;23;20788;-45
2023/04/25 00:03:38;;;;;;;3.07;2.00;;;13.10;82.30;;;;;;6086644;23;20446;-44
2023/04/25 00:06:08;;;;;;;2.43;1.63;;;13.20;82.30;;;;;;6086047;23;20993;-45
2023/04/25 00:08:37;;;;;;;4.57;2.43;;;13.10;82.00;;;;;;6086067;23;20477;-44
2023/04/25 00:11:07;;;;;;;2.50;1.87;;;13.10;82.30;;;;;;6085786;23;20871;-44
2023/04/25 00:13:41;;;;;;;3.30;2.00;;;13.20;82.40;;;;;;6085994;23;20377;-45
2023/04/25 00:16:10;;;;;;;3.07;2.50;;;13.20;82.50;;;;;;6085622;23;20502;-44
2023/04/25 00:18:39;;;;;;;3.93;1.77;;;13.10;82.30;;;;;;6086444;23;20396;-44
2023/04/25 00:21:08;;;;;;;3.30;2.00;;;13.10;82.40;;;;;;6085506;23;20451;-45
2023/04/25 00:23:36;;;;;;;2.70;2.00;;;13.10;82.60;;;;;;6085895;23;20822;-44
2023/04/25 00:26:06;;;;;;;2.93;2.60;;;13.10;82.60;;;;;;6084712;23;20450;-44
2023/04/25 00:28:36;;;;;;;2.47;2.27;;;13.10;82.40;;;;;;6085528;23;20450;-47
2023/04/25 00:31:04;;;;;;;3.47;1.80;;;13.10;82.40;;;;;;6085234;23;20439;-44
2023/04/25 00:33:33;;;;;;;2.83;2.07;;;13.10;82.30;;;;;;6086000;23;20546;-44
2023/04/25 00:36:02;;;;;;;5.30;2.73;;;13.10;82.10;;;;;;6085231;23;20443;-44
2023/04/25 00:38:30;;;;;;;2.73;2.10;;;13.10;82.20;;;;;;6087288;23;20415;-45
2023/04/25 00:40:59;;;;;;;2.30;1.90;;;13.10;82.10;;;;;;6085301;23;20517;-45
2023/04/25 00:43:31;;;;;;;3.00;1.63;;;13.10;82.30;;;;;;6085638;23;20388;-45
2023/04/25 00:46:01;;;;;;;2.93;2.10;;;13.10;82.40;;;;;;6061707;23;20784;-45
2023/04/25 00:48:29;;;;;;;2.77;1.97;;;13.10;82.30;;;;;;6086766;23;20426;-45
2023/04/25 00:50:59;;;;;;;2.50;1.67;;;13.10;82.20;;;;;;6085803;23;20451;-45
2023/04/25 00:53:29;;;;;;;3.50;2.07;;;13.10;82.30;;;;;;6086837;23;20384;-45
2023/04/25 00:55:58;;;;;;;2.20;1.50;;;13.10;82.40;;;;;;6085906;23;20452;-45
2023/04/25 00:58:26;;;;;;;2.50;1.63;;;13.10;82.40;;;;;;6085560;23;20385;-44
2023/04/25 01:00:58;;;;;;;2.40;1.83;;;13.10;82.50;;;;;;6085068;23;20958;-45
2023/04/25 01:03:28;;;;;;;3.17;2.20;;;13.10;82.30;;;;;;6088671;23;20442;-45
2023/04/25 01:05:57;;;;;;;2.30;1.90;;;13.10;82.40;;;;;;6061856;23;20854;-42
2023/04/25 01:08:26;;;;;;;4.70;2.27;;;13.00;82.50;;;;;;6086512;23;20423;-42
2023/04/25 01:10:54;;;;;;;2.70;2.10;;;13.10;82.50;;;;;;6086067;23;20460;-45
2023/04/25 01:13:23;;;;;;;2.87;1.57;;;13.10;82.60;;;;;;6085926;23;20898;-44
2023/04/25 01:15:52;;;;;;;2.10;1.73;;;13.00;82.60;;;;;;6085826;23;20867;-45
2023/04/25 01:18:22;;;;;;;3.83;1.90;;;13.00;82.60;;;;;;6086664;23;20407;-45
2023/04/25 01:20:53;;;;;;;2.20;1.60;;;13.00;82.60;;;;;;6085126;23;20448;-43
2023/04/25 01:23:24;;;;;;;2.63;2.43;;;13.00;82.60;;;;;;6085638;23;20882;-43
2023/04/25 01:25:54;;;;;;;2.60;1.77;;;13.00;82.40;;;;;;6085694;23;21023;-45
2023/04/25 01:28:23;;;;;;;2.30;1.30;;;13.00;82.50;;;;;;6085130;23;20442;-46
2023/04/25 01:30:53;;;;;;;3.50;1.90;;;13.00;82.60;;;;;;6086477;23;20485;-46
2023/04/25 01:33:23;;;;;;;2.97;2.10;;;13.00;82.70;;;;;;6086796;23;20400;-43
2023/04/25 01:35:51;;;;;;;2.47;1.80;;;13.00;82.30;;;;;;6060906;23;20448;-45
2023/04/25 01:38:21;;;;;;;2.70;2.13;;;13.00;82.60;;;;;;6086836;23;20399;-44
2023/04/25 01:40:52;;;;;;;3.27;2.20;;;13.00;82.50;;;;;;6085433;23;20795;-45
2023/04/25 01:43:22;;;;;;;3.90;2.00;;;13.00;82.70;;;;;;6084501;23;20388;-45
2023/04/25 01:45:51;;;;;;;3.53;2.00;;;13.00;82.60;;;;;;6085119;23;20502;-45
2023/04/25 01:48:20;;;;;;;2.73;2.27;;;13.00;82.50;;;;;;6086244;23;20388;-46
2023/04/25 01:50:49;;;;;;;2.83;1.93;;;12.90;82.40;;;;;;6084510;23;20436;-44
2023/04/25 01:53:18;;;;;;;2.47;1.77;;;13.00;82.50;;;;;;6087345;23;20777;-45
2023/04/25 01:55:48;;;;;;;4.17;2.03;;;12.90;82.40;;;;;;6085670;23;20447;-45
2023/04/25 01:58:21;;;;;;;3.20;1.90;;;12.90;82.60;;;;;;6086003;23;20415;-44
2023/04/25 02:01:06;;;;;;;4.17;1.80;;;12.90;82.60;;;;;;6085697;23;20451;-45
2023/04/25 02:03:42;;;;;;;4.33;2.30;;;12.90;82.70;;;;;;6086744;23;20387;-45
2023/04/25 02:06:20;;;;;;;2.53;1.67;;;12.90;82.70;;;;;;6085441;23;20447;-45
2023/04/25 02:08:50;;;;;;;2.80;2.03;;;12.90;82.70;;;;;;6087004;23;20449;-44
2023/04/25 02:11:18;;;;;;;2.20;1.80;;;12.90;82.80;;;;;;6085531;23;20442;-44
2023/04/25 02:14:17;;;;;;;4.73;2.50;;;12.90;82.80;;;;;;6079742;23;20404;-45
2023/04/25 02:16:53;;;;;;;2.80;1.97;;;12.90;82.60;;;;;;6086337;23;20423;-45
2023/04/25 02:19:22;;;;;;;3.10;2.07;;;12.90;82.70;;;;;;6085686;23;20494;-44
2023/04/25 02:21:50;;;;;;;3.50;2.30;;;12.90;82.80;;;;;;6084879;23;20458;-44
2023/04/25 02:24:19;;;;;;;2.13;1.63;;;12.90;82.80;;;;;;6085701;23;20407;-44
2023/04/25 02:26:49;;;;;;;2.90;1.80;;;12.90;82.80;;;;;;6086226;23;20428;-44
2023/04/25 02:29:19;;;;;;;2.53;1.87;;;12.90;82.60;;;;;;6083384;23;20491;-46
2023/04/25 02:31:48;;;;;;;2.57;2.10;;;12.80;82.70;;;;;;6088156;23;20392;-45
2023/04/25 02:34:18;;;;;;;2.67;1.77;;;12.90;82.70;;;;;;6061315;23;20404;-44
2023/04/25 02:36:46;;;;;;;4.80;2.43;;;12.80;82.60;;;;;;6086278;23;20735;-45
2023/04/25 02:39:18;;;;;;;4.10;2.10;;;12.80;82.70;;;;;;6084134;23;20475;-44
2023/04/25 02:41:50;;;;;;;3.70;2.50;;;12.80;82.60;;;;;;6085241;23;20800;-44
2023/04/25 02:44:20;;;;;;;2.17;1.47;;;12.80;82.60;;;;;;6085428;23;20389;-44
2023/04/25 02:46:49;;;;;;;3.40;2.30;;;12.80;82.80;;;;;;6086112;23;20417;-44
2023/04/25 02:49:17;;;;;;;2.20;1.70;;;12.90;82.70;;;;;;6084721;23;20392;-45
2023/04/25 02:51:46;;;;;;;2.37;2.10;;;12.90;82.70;;;;;;6084527;23;20384;-44
2023/04/25 02:54:15;;;;;;;2.67;1.97;;;12.80;82.70;;;;;;6086530;23;20454;-44
2023/04/25 02:56:48;;;;;;;3.23;2.30;;;12.80;82.70;;;;;;6084914;23;20424;-44
2023/04/25 02:59:24;;;;;;;4.40;1.83;;;12.80;82.80;;;;;;6085139;23;20597;-44
2023/04/25 03:01:53;;;;;;;2.30;1.60;;;12.80;82.80;;;;;;6085428;23;20420;-45
2023/04/25 03:04:23;;;;;;;2.97;1.90;;;12.80;82.70;;;;;;6083888;23;20407;-44
2023/04/25 03:06:52;;;;;;;2.30;1.97;;;12.80;82.80;;;;;;6085263;23;20419;-44
2023/04/25 03:09:22;;;;;;;2.90;2.20;;;12.80;82.80;;;;;;6085245;23;20380;-43
2023/04/25 03:11:52;;;;;;;2.70;1.87;;;12.80;82.60;;;;;;6086264;23;20388;-44
2023/04/25 03:14:24;;;;;;;4.00;2.43;;;12.80;82.70;;;;;;6084723;23;20385;-44
2023/04/25 03:16:52;;;;;;;3.83;2.50;;;12.80;82.40;;;;;;6086263;23;20443;-44
2023/04/25 03:19:21;;;;;;;2.63;2.00;;;12.80;82.60;;;;;;6085710;23;20388;-44
2023/04/25 03:21:50;;;;;;;3.80;2.50;;;12.80;82.60;;;;;;6085136;23;20957;-44
2023/04/25 03:24:18;;;;;;;2.83;2.17;;;12.80;82.60;;;;;;6085450;23;20715;-44
2023/04/25 03:26:47;;;;;;;4.27;2.40;;;12.80;82.70;;;;;;6086260;23;20423;-44
2023/04/25 03:29:16;;;;;;;2.80;2.00;;;12.70;82.60;;;;;;6085431;23;20396;-45
2023/04/25 03:31:46;;;;;;;2.10;1.67;;;12.80;82.70;;;;;;6086178;23;20727;-44
2023/04/25 03:34:15;;;;;;;3.57;1.87;;;12.70;82.60;;;;;;6086718;23;20380;-44
2023/04/25 03:36:45;;;;;;;5.20;2.60;;;12.70;82.60;;;;;;6085182;23;20489;-44
2023/04/25 03:39:14;;;;;;;2.93;2.00;;;12.70;82.30;;;;;;6086790;23;20427;-44
2023/04/25 03:41:48;;;;;;;2.73;1.97;;;12.80;82.60;;;;;;6085994;23;20431;-45
2023/04/25 03:44:18;;;;;;;3.03;1.93;;;12.80;82.70;;;;;;6085827;23;20403;-44
2023/04/25 03:46:48;;;;;;;2.33;1.97;;;12.70;82.60;;;;;;6087809;23;20416;-43
2023/04/25 03:49:17;;;;;;;2.23;1.67;;;12.70;82.60;;;;;;6086147;23;20902;-44
2023/04/25 03:52:13;;;;;;;3.93;2.20;;;12.70;82.60;;;;;;6089581;23;20416;-43
2023/04/25 03:54:42;;;;;;;2.10;1.70;;;12.70;82.50;;;;;;6087682;23;20392;-43
2023/04/25 03:57:14;;;;;;;3.37;2.27;;;12.70;82.60;;;;;;6086812;23;20483;-43
2023/04/25 03:59:44;;;;;;;3.20;2.10;;;12.70;82.70;;;;;;6086376;23;20808;-44
2023/04/25 04:02:16;;;;;;;2.47;1.83;;;12.70;82.70;;;;;;6087593;23;20495;-44
2023/04/25 04:04:45;;;;;;;3.10;2.00;;;12.70;82.70;;;;;;6086976;23;20628;-44
2023/04/25 04:07:15;;;;;;;2.20;1.70;;;12.70;82.60;;;;;;6086538;23;20423;-44
2023/04/25 04:09:47;;;;;;;3.00;2.00;;;12.70;82.70;;;;;;6085451;23;20438;-44
2023/04/25 04:12:23;;;;;;;3.13;2.10;;;12.70;82.70;;;;;;6086828;23;20459;-44
2023/04/25 04:14:52;;;;;;;3.70;2.20;;;12.70;82.80;;;;;;6087035;23;20462;-43
2023/04/25 04:17:22;;;;;;;3.13;2.00;;;12.70;82.80;;;;;;6087717;23;20403;-44
2023/04/25 04:19:52;;;;;;;3.70;2.43;;;12.70;82.70;;;;;;6085514;23;20463;-44
2023/04/25 04:22:22;;;;;;;2.20;1.73;;;12.70;82.70;;;;;;6086151;23;20910;-44
2023/04/25 04:24:52;;;;;;;3.67;2.07;;;12.60;82.60;;;;;;6087122;23;20795;-43
2023/04/25 04:27:44;;;;;;;2.93;2.10;;;12.70;82.70;;;;;;6087281;23;20403;-43
2023/04/25 04:30:25;;;;;;;2.20;2.00;;;12.60;82.60;;;;;;6086376;23;20436;-45
2023/04/25 04:33:00;;;;;;;2.27;1.70;;;12.70;82.70;;;;;;6087263;23;20388;-45
2023/04/25 04:35:30;;;;;;;3.60;2.03;;;12.60;82.60;;;;;;6085870;23;20518;-44
2023/04/25 04:38:00;;;;;;;2.83;2.10;;;12.60;82.60;;;;;;6086736;23;20407;-43
2023/04/25 04:40:43;;;;;;;2.10;1.90;;;12.60;82.60;;;;;;6085793;23;20526;-45
2023/04/25 04:43:35;;;;;;;2.67;1.90;;;12.60;82.70;;;;;;6088019;23;20419;-44
2023/04/25 04:46:24;;;;;;;1.97;1.50;;;12.60;82.70;;;;;;6086609;23;20960;-44
2023/04/25 04:49:13;;;;;;;6.10;1.60;;;12.60;82.70;;;;;;6088565;23;20404;-44
2023/04/25 04:51:59;;;;;;;3.60;1.93;;;12.60;82.70;;;;;;6086686;23;20458;-46
2023/04/25 04:54:38;;;;;;;2.93;2.40;;;12.60;82.60;;;;;;6086575;23;20388;-44
2023/04/25 04:57:23;;;;;;;2.80;1.97;;;12.60;82.60;;;;;;6086356;23;20389;-44
2023/04/25 04:59:58;;;;;;;2.60;1.90;;;12.60;82.70;;;;;;6086572;23;20438;-44
2023/04/25 05:02:56;;;;;;;5.20;2.10;;;12.60;82.60;;;;;;6086086;23;20898;-44
2023/04/25 05:05:42;;;;;;;3.17;1.57;;;12.60;82.70;;;;;;6087929;23;20447;-44
2023/04/25 05:08:29;;;;;;;2.30;1.57;;;12.60;82.70;;;;;;6088100;23;20406;-43
2023/04/25 05:11:19;;;;;;;3.00;1.90;;;12.60;82.60;;;;;;6132422;23;20443;-44
2023/04/25 05:14:05;;;;;;;2.57;1.93;;;12.50;82.70;;;;;;6085996;23;20400;-44
2023/04/25 05:16:39;;;;;;;9.97;3.07;;;12.50;82.60;;;;;;6086705;23;20999;-44
2023/04/25 05:19:34;;;;;;;3.10;1.80;;;12.60;82.80;;;;;;6087847;23;20392;-44
2023/04/25 05:22:28;;;;;;;2.80;1.47;;;12.50;82.60;;;;;;6085364;23;20420;-44
2023/04/25 05:25:21;;;;;;;3.20;2.30;;;12.50;82.60;;;;;;6086123;23;20436;-45
2023/04/25 05:28:00;;;;;;;2.90;1.73;;;12.50;82.60;;;;;;6086336;23;20852;-44
2023/04/25 05:30:41;;;;;;;3.30;2.17;;;12.50;82.60;;;;;;6086004;23;20431;-44
2023/04/25 05:33:19;;;;;;;7.93;2.30;;;12.50;82.40;;;;;;6087590;23;20894;-43
2023/04/25 05:35:49;;;;;;;2.97;1.93;;;12.50;82.50;;;;;;6085323;23;20447;-44
2023/04/25 05:38:20;;;;;;;4.20;2.27;;;12.50;82.60;;;;;;6087497;23;20462;-45
2023/04/25 05:41:07;;;;;;;2.83;1.70;;;12.50;82.50;;;;;;6087749;23;20432;-44
2023/04/25 05:44:05;;;;;;;3.10;2.30;;;12.50;82.50;;;;;;6027496;23;20437;-43
2023/04/25 05:46:40;;;;;;;3.23;2.27;;;12.50;82.60;;;;;;6027894;23;20444;-44
2023/04/25 05:49:22;;;;;;;3.30;2.30;;;12.50;82.50;;;;;;6085216;23;20879;-44
2023/04/25 05:52:06;;;;;;;3.00;2.10;;;12.50;82.70;;;;;;6086999;23;20692;-44
2023/04/25 05:54:49;;;;;;;3.80;2.10;;;12.50;82.40;;;;;;6087492;23;20851;-45
2023/04/25 05:57:22;;;;;;;3.00;2.30;;;12.50;82.50;;;;;;6086488;23;20938;-43
2023/04/25 05:59:51;;;;;;;4.17;1.97;;;12.50;82.60;;;;;;6086944;23;20717;-43
2023/04/25 06:02:22;;;;;;;3.20;2.00;;;12.40;82.60;;;;;;6087137;23;20384;-45
2023/04/25 06:04:52;;;;;;;2.47;2.10;;;12.50;82.60;;;;;;6087601;23;20459;-44
2023/04/25 06:07:23;;;;;;;3.33;2.03;;;12.50;82.70;;;;;;6087532;23;20754;-43
2023/04/25 06:09:54;;;;;;;4.33;2.57;;;12.50;82.70;;;;;;6087535;23;20392;-45
2023/04/25 06:12:22;;;;;;;5.43;1.83;;;12.40;82.60;;;;;;6085904;23;20396;-44
2023/04/25 06:14:52;;;;;;;5.17;2.23;;;12.50;82.40;;;;;;6086477;23;20467;-44
2023/04/25 06:17:21;;;;;;;2.90;1.80;;;12.40;82.40;;;;;;6086684;23;20403;-43
2023/04/25 06:19:51;;;;;;;4.63;2.10;;;12.40;82.30;;;;;;6086719;23;20395;-44
2023/04/25 06:22:20;;;;;;;2.23;1.90;;;12.40;82.20;;;;;;6085559;23;20459;-45
2023/04/25 06:24:48;;;;;;;3.13;2.10;;;12.50;82.40;;;;;;6086499;23;20498;-45
2023/04/25 06:27:19;;;;;;;2.60;2.27;;;12.50;82.20;;;;;;6085457;23;20781;-45
2023/04/25 06:29:47;;;;;;;2.27;2.00;;;12.40;82.20;;;;;;6085939;23;20440;-44
2023/04/25 06:32:17;;;;;;;3.40;2.13;;;12.50;82.30;;;;;;6087046;23;20443;-44
2023/04/25 06:34:46;;;;;;;4.13;2.20;;;12.50;82.40;;;;;;6086265;23;20420;-44
2023/04/25 06:37:15;;;;;;;3.00;1.90;;;12.50;82.00;;;;;;6085725;23;20746;-45
2023/04/25 06:39:44;;;;;;;4.23;2.13;;;12.50;82.10;;;;;;6086918;23;20407;-44
2023/04/25 06:42:13;;;;;;;3.50;2.37;;;12.40;82.00;;;;;;6087275;23;20383;-45
2023/04/25 06:44:58;;;;;;;2.90;1.83;;;12.40;81.90;;;;;;6086634;23;20411;-45
2023/04/25 06:47:30;;;;;;;3.70;2.13;;;12.40;81.80;;;;;;6086760;23;20380;-45
2023/04/25 06:50:01;;;;;;;4.10;2.17;;;12.40;81.90;;;;;;6086646;23;20385;-44
2023/04/25 06:52:31;;;;;;;7.10;2.33;;;12.40;81.70;;;;;;6086077;23;20551;-43
2023/04/25 06:55:02;;;;;;;5.27;2.57;;;12.40;81.70;;;;;;6085383;23;20914;-44
2023/04/25 06:57:44;;;;;;;4.27;1.73;;;12.40;81.50;;;;;;6085817;23;20382;-43
2023/04/25 07:00:37;;;;;;;3.80;2.07;;;12.40;81.70;;;;;;6082740;23;20444;-44
2023/04/25 07:03:06;;;;;;;4.50;2.20;;;12.40;81.50;;;;;;6061327;23;20400;-44
2023/04/25 07:05:35;;;;;;;5.60;3.53;;;12.40;81.30;;;;;;6086771;23;20408;-44
2023/04/25 07:08:03;;;;;;;4.80;1.97;;;12.40;81.50;;;;;;6086659;23;20757;-43
2023/04/25 07:10:32;;;;;;;5.17;2.60;;;12.40;81.40;;;;;;6084864;23;20460;-44
2023/04/25 07:13:01;;;;;;;4.83;2.10;;;12.40;81.10;;;;;;6086080;23;20629;-44
2023/04/25 07:15:31;;;;;;;3.40;2.50;;;12.40;81.50;;;;;;6085499;23;20426;-44
2023/04/25 07:18:03;;;;;;;5.20;2.30;;;12.40;81.60;;;;;;6086676;23;20471;-44
2023/04/25 07:20:32;;;;;;;5.93;2.90;;;12.40;81.50;;;;;;6086214;23;20447;-44
2023/04/25 07:23:02;;;;;;;5.60;3.00;;;12.40;81.10;;;;;;6085825;23;20410;-44
2023/04/25 07:25:31;;;;;;;4.03;1.90;;;12.40;80.70;;;;;;6084522;23;20436;-44
2023/04/25 07:28:01;;;;;;;3.13;2.07;;;12.40;81.50;;;;;;6085612;23;20449;-44
2023/04/25 07:30:30;;;;;;;6.10;2.37;;;12.40;81.30;;;;;;6086765;23;20434;-43
2023/04/25 07:32:58;;;;;;;2.70;1.57;;;12.40;80.30;;;;;;6089198;23;20388;-43
2023/04/25 07:35:29;;;;;;;4.97;1.97;;;12.40;81.10;;;;;;6086113;23;20494;-44
2023/04/25 07:37:58;;;;;;;3.20;1.87;;;12.40;81.10;;;;;;6086734;23;20427;-44
2023/04/25 07:40:27;;;;;;;3.00;2.40;;;12.30;81.20;;;;;;6086259;23;20554;-45
2023/04/25 07:43:03;;;;;;;3.13;2.00;;;12.30;81.40;;;;;;6087250;23;20415;-45
2023/04/25 07:45:46;;;;;;;4.40;1.97;;;12.30;81.10;;;;;;6086705;23;20930;-44
2023/04/25 07:48:19;;;;;;;3.40;2.27;;;12.40;81.20;;;;;;6087841;23;20426;-45
2023/04/25 07:50:50;;;;;;;5.07;2.33;;;12.40;80.80;;;;;;6086279;23;20943;-44
2023/04/25 07:53:19;;;;;;;2.43;1.87;;;12.30;80.50;;;;;;6088035;23;20388;-44
2023/04/25 07:55:57;;;;;;;3.90;1.83;;;12.30;80.90;;;;;;6085980;23;20957;-41
2023/04/25 07:58:26;;;;;;;3.20;2.03;;;12.30;80.60;;;;;;6087646;23;20396;-45
2023/04/25 08:00:59;;;;;;;3.13;1.67;;;12.30;80.70;;;;;;6086823;23;20436;-44
2023/04/25 08:03:40;;;;;;;5.30;2.07;;;12.30;81.30;;;;;;6089409;23;20377;-45
2023/04/25 08:06:21;;;;;;;3.20;1.50;;;12.30;81.40;;;;;;6086144;23;20516;-45
2023/04/25 08:09:00;;;;;;;5.90;2.40;;;12.30;81.40;;;;;;6087716;23;20392;-44
2023/04/25 08:11:35;;;;;;;6.83;2.70;;;12.30;81.20;;;;;;6086656;22;20438;-45
2023/04/25 08:14:04;;;;;;;4.20;2.57;;;12.30;81.00;;;;;;6087078;23;20396;-46
2023/04/25 08:16:34;;;;;;;3.70;1.90;;;12.30;80.70;;;;;;6086705;23;20463;-44
2023/04/25 08:19:04;;;;;;;4.10;1.70;;;12.30;80.60;;;;;;6088063;23;20392;-44
2023/04/25 08:21:35;;;;;;;4.00;2.10;;;12.30;81.00;;;;;;6085612;23;20446;-45
2023/04/25 08:24:08;;;;;;;5.60;2.33;;;12.30;80.80;;;;;;6087947;23;20420;-44
2023/04/25 08:26:40;;;;;;;2.80;2.03;;;12.30;82.00;;;;;;6086315;23;20435;-45
2023/04/25 08:29:11;;;;;;;3.00;2.07;;;12.30;80.90;;;;;;6087035;23;20960;-45
2023/04/25 08:31:41;;;;;;;5.90;1.90;;;12.30;80.80;;;;;;6087139;23;20436;-45
2023/04/25 08:34:11;;;;;;;3.40;2.13;;;12.30;80.50;;;;;;6087425;23;20709;-44
2023/04/25 08:36:50;;;;;;;3.57;1.90;;;12.30;80.60;;;;;;6086067;23;20428;-45
2023/04/25 08:39:38;;;;;;;3.43;1.90;;;12.30;79.60;;;;;;6087459;23;20392;-45
2023/04/25 08:42:33;;;;;;;4.73;1.73;;;12.30;79.90;;;;;;6086283;23;20410;-45
2023/04/25 08:45:04;;;;;;;3.40;2.10;;;12.30;79.60;;;;;;6087172;23;20440;-45
2023/04/25 08:47:41;;;;;;;3.57;1.80;;;12.30;79.60;;;;;;6087643;23;20368;-45
2023/04/25 08:50:10;;;;;;;5.17;1.80;;;12.30;79.90;;;;;;6085704;23;20442;-44
2023/04/25 08:52:45;;;;;;;4.60;2.30;;;12.30;79.90;;;;;;6087809;23;20411;-45
2023/04/25 08:55:16;;;;;;;3.40;1.80;;;12.30;80.20;;;;;;6087263;23;20421;-44
2023/04/25 08:57:45;;;;;;;4.40;1.90;;;12.30;80.30;;;;;;6087018;23;20698;-44
2023/04/25 09:00:14;;;;;;;3.37;2.10;;;12.30;80.10;;;;;;6087235;23;20768;-45
2023/04/25 09:02:46;;;;;;;3.10;2.00;;;12.30;79.30;;;;;;6086639;23;20413;-45
2023/04/25 09:05:15;;;;;;;3.97;1.80;;;12.30;80.00;;;;;;6087860;23;20443;-45
2023/04/25 09:07:46;;;;;;;4.90;2.57;;;12.30;80.00;;;;;;6087096;23;20376;-43
2023/04/25 09:10:18;;;;;;;4.60;2.50;;;12.30;80.30;;;;;;6087559;23;20441;-45
2023/04/25 09:13:02;;;;;;;4.23;1.80;;;12.20;79.90;;;;;;6086707;23;20372;-44
2023/04/25 09:15:32;;;;;;;3.90;1.67;;;12.30;80.00;;;;;;6087193;23;20963;-45
2023/04/25 09:18:10;;;;;;;4.00;1.80;;;12.30;80.00;;;;;;6087372;23;20471;-44
2023/04/25 09:20:44;;;;;;;3.30;1.70;;;12.30;79.60;;;;;;6088290;23;20957;-45
2023/04/25 09:23:17;;;;;;;3.53;2.00;;;12.30;79.70;;;;;;6086324;23;20704;-44
2023/04/25 09:25:48;;;;;;;4.10;2.30;;;12.30;80.00;;;;;;6086067;23;20498;-44
2023/04/25 09:28:24;;;;;;;4.03;1.80;;;12.20;79.70;;;;;;6086402;23;20408;-45
2023/04/25 09:30:58;;;;;;;5.10;2.30;;;12.30;79.90;;;;;;6086212;23;20485;-44
2023/04/25 09:33:46;;;;;;;3.23;1.80;;;12.20;79.40;;;;;;6088080;23;20886;-44
2023/04/25 09:36:18;;;;;;;4.13;1.97;;;12.30;80.00;;;;;;6086027;23;20447;-44
2023/04/25 09:39:16;;;;;;;4.90;2.37;;;12.30;80.00;;;;;;6072645;23;20913;-44
2023/04/25 09:41:55;;;;;;;4.07;2.17;;;12.30;79.50;;;;;;6087108;23;20913;-44
2023/04/25 09:44:25;;;;;;;5.80;2.80;;;12.20;79.50;;;;;;6086822;23;20376;-44
2023/04/25 09:46:55;;;;;;;3.77;1.90;;;12.30;79.70;;;;;;6087810;23;20415;-43
2023/04/25 09:49:29;;;;;;;4.10;2.03;;;12.20;79.40;;;;;;6087640;23;20416;-44
2023/04/25 09:52:15;;;;;;;2.77;1.80;;;12.20;79.40;;;;;;6086648;23;20376;-43
2023/04/25 09:55:09;;;;;;;4.77;1.97;;;12.30;79.00;;;;;;6083268;23;20460;-44
2023/04/25 09:57:39;;;;;;;3.70;2.13;;;12.30;79.40;;;;;;6087046;23;20709;-44
2023/04/25 10:00:12;;;;;;;4.20;2.30;;;12.20;79.20;;;;;;6086947;23;20399;-44
2023/04/25 10:02:48;;;;;;;3.13;1.70;;;12.20;79.30;;;;;;6088979;23;20382;-44
2023/04/25 10:05:43;;;;;;;3.53;1.83;;;12.20;79.40;;;;;;6085687;23;20444;-44
2023/04/25 10:08:13;;;;;;;4.27;1.93;;;12.20;79.30;;;;;;6087469;23;20856;-43
2023/04/25 10:10:44;;;;;;;4.77;1.90;;;12.20;79.40;;;;;;6086085;23;20443;-44
2023/04/25 10:13:14;;;;;;;4.00;2.07;;;12.20;80.50;;;;;;6086529;23;20462;-44
2023/04/25 10:15:44;;;;;;;3.30;1.47;;;12.20;78.90;;;;;;6086941;23;21002;-44
2023/04/25 10:18:22;;;;;;;3.37;2.30;;;12.20;78.90;;;;;;6086849;23;20439;-44
2023/04/25 10:21:03;;;;;;;6.30;2.23;;;12.20;79.20;;;;;;6087252;23;20750;-45
2023/04/25 10:23:34;;;;;;;3.83;1.90;;;12.20;78.80;;;;;;6087230;23;20731;-44
2023/04/25 10:26:04;;;;;;;3.47;2.10;;;12.20;78.60;;;;;;6085777;23;20451;-44
2023/04/25 10:28:56;;;;;;;3.87;1.90;;;12.20;78.20;;;;;;6086946;23;20493;-45
2023/04/25 10:31:25;;;;;;;5.23;2.00;;;12.20;78.90;;;;;;6085696;23;20969;-44
2023/04/25 10:33:55;;;;;;;3.17;2.07;;;12.30;78.70;;;;;;6089028;23;20392;-44
2023/04/25 10:36:27;;;;;;;2.37;1.83;;;12.20;78.60;;;;;;6086836;23;20440;-43
2023/04/25 10:38:57;;;;;;;3.17;2.00;;;12.20;78.50;;;;;;6086018;23;20380;-44
2023/04/25 10:41:29;;;;;;;3.17;2.00;;;12.20;78.60;;;;;;6085826;23;20944;-44
2023/04/25 10:44:02;;;;;;;5.20;1.80;;;12.20;78.40;;;;;;6085002;23;20376;-44
2023/04/25 10:46:31;;;;;;;2.57;1.70;;;12.20;78.50;;;;;;6083522;23;20447;-44
2023/04/25 10:49:01;;;;;;;4.50;2.60;;;12.20;78.60;;;;;;6085418;23;20483;-44
2023/04/25 10:51:31;;;;;;;5.90;1.80;;;12.20;78.90;;;;;;6084230;23;20440;-44
2023/04/25 10:54:21;;;;;;;2.97;1.90;;;12.20;79.00;;;;;;6085278;23;20485;-44
2023/04/25 10:56:53;;;;;;;3.20;2.17;;;12.20;78.80;;;;;;6085419;23;20755;-44
2023/04/25 10:59:26;;;;;;;3.23;1.80;;;12.30;78.10;;;;;;6085959;23;20851;-44
2023/04/25 11:01:54;;;;;;;3.10;1.50;;;12.20;78.10;;;;;;6086342;23;20407;-43
2023/04/25 11:04:25;;;;;;;4.70;2.20;;;12.20;78.40;;;;;;6087769;23;20380;-44
2023/04/25 11:07:05;;;;;;;3.53;1.90;;;12.30;78.40;;;;;;6086684;23;20447;-44
2023/04/25 11:09:36;;;;;;;3.50;1.80;;;12.30;78.60;;;;;;6088318;23;20364;-43
2023/04/25 11:12:11;;;;;;;4.70;2.60;;;12.30;78.40;;;;;;6086557;23;20400;-45
2023/04/25 11:14:43;;;;;;;4.20;1.90;;;12.30;78.40;;;;;;6086070;23;20431;-44
2023/04/25 11:17:11;;;;;;;3.50;1.80;;;12.30;78.40;;;;;;6087609;23;20380;-44
2023/04/25 11:19:40;;;;;;;2.80;1.57;;;12.30;78.00;;;;;;6088035;23;20396;-44
2023/04/25 11:22:11;;;;;;;3.70;1.83;;;12.30;78.60;;;;;;6086990;23;20483;-44
2023/04/25 11:24:40;;;;;;;2.93;1.53;;;12.30;78.90;;;;;;6085829;23;20714;-44
2023/04/25 11:27:10;;;;;;;2.70;1.63;;;12.30;78.40;;;;;;6085486;23;20420;-45
2023/04/25 11:29:39;;;;;;;3.43;1.83;;;12.30;78.70;;;;;;6087945;23;20404;-44
2023/04/25 11:32:08;;;;;;;3.53;1.93;;;12.30;78.90;;;;;;6086733;23;20907;-44
2023/04/25 11:34:37;;;;;;;3.07;1.90;;;12.30;78.40;;;;;;6085997;23;20383;-43
2023/04/25 11:37:06;;;;;;;2.10;1.70;;;12.20;78.30;;;;;;6087525;23;20402;-44
2023/04/25 11:39:35;;;;;;;3.97;1.90;;;12.30;78.10;;;;;;6087235;23;20707;-44
2023/04/25 11:42:06;;;;;;;5.20;2.03;;;12.30;78.10;;;;;;6063153;23;20399;-44
2023/04/25 11:44:42;;;;;;;2.33;1.50;;;12.30;78.50;;;;;;6086488;23;20372;-44
2023/04/25 11:47:11;;;;;;;2.77;2.00;;;12.30;78.30;;;;;;6090133;23;20470;-45
2023/04/25 11:49:40;;;;;;;2.60;1.90;;;12.30;78.20;;;;;;6088370;23;20396;-44
2023/04/25 11:52:08;;;;;;;3.30;1.47;;;12.30;78.40;;;;;;6086948;23;20421;-44
2023/04/25 11:54:37;;;;;;;2.87;1.70;;;12.20;78.00;;;;;;6088162;23;20854;-44
2023/04/25 11:57:06;;;;;;;3.43;1.83;;;12.30;78.40;;;;;;6087888;23;20495;-44
2023/04/25 11:59:36;;;;;;;7.23;2.10;;;12.20;78.10;;;;;;6087802;23;20372;-44
2023/04/25 12:02:06;;;;;;;2.73;1.60;;;12.30;78.10;;;;;;6088452;23;20407;-44
2023/04/25 12:04:36;;;;;;;6.50;2.30;;;12.20;78.00;;;;;;6087781;23;20441;-44
2023/04/25 12:07:05;;;;;;;4.50;1.90;;;12.20;78.20;;;;;;6087919;23;20448;-45
2023/04/25 12:09:34;;;;;;;3.70;1.77;;;12.20;77.80;;;;;;6087055;23;20445;-44
2023/04/25 12:12:03;;;;;;;2.63;1.63;;;12.30;78.00;;;;;;6086489;23;20461;-44
2023/04/25 12:14:35;;;;;;;3.57;1.63;;;12.30;78.40;;;;;;6088202;23;20782;-44
2023/04/25 12:17:07;;;;;;;4.27;1.47;;;12.20;77.60;;;;;;6087631;23;20373;-44
2023/04/25 12:19:39;;;;;;;3.83;1.70;;;12.20;77.30;;;;;;6087216;23;20926;-44
2023/04/25 12:22:22;;;;;;;3.40;2.43;;;12.30;77.80;;;;;;6086945;23;20384;-45
2023/04/25 12:24:53;;;;;;;3.20;1.97;;;12.30;78.20;;;;;;6088291;23;20740;-45
2023/04/25 12:27:27;;;;;;;3.43;2.00;;;12.30;78.00;;;;;;6085773;23;20416;-44
2023/04/25 12:29:57;;;;;;;2.93;1.77;;;12.30;78.00;;;;;;6086460;23;20438;-45
2023/04/25 12:32:27;;;;;;;2.90;2.00;;;12.30;78.30;;;;;;6110522;23;20388;-42
2023/04/25 12:34:56;;;;;;;3.83;2.23;;;12.30;77.90;;;;;;6087982;23;20707;-45
2023/04/25 12:37:25;;;;;;;3.90;2.30;;;12.30;77.80;;;;;;6086457;23;20430;-44
2023/04/25 12:39:53;;;;;;;3.30;1.73;;;12.30;77.80;;;;;;6086827;23;20432;-44
2023/04/25 12:42:22;;;;;;;4.03;1.97;;;12.40;78.10;;;;;;6086360;23;20408;-45
2023/04/25 12:44:50;;;;;;;3.30;1.43;;;12.40;78.30;;;;;;6086839;23;20476;-44
2023/04/25 12:47:19;;;;;;;3.10;1.77;;;12.40;78.00;;;;;;6087540;23;20423;-45
2023/04/25 12:49:49;;;;;;;3.90;1.70;;;12.40;77.70;;;;;;6086925;23;20956;-44
2023/04/25 12:52:18;;;;;;;3.40;1.70;;;12.30;78.10;;;;;;6086589;23;20891;-44
2023/04/25 12:54:46;;;;;;;4.27;2.10;;;12.40;78.40;;;;;;6087851;23;20388;-46
2023/04/25 12:57:15;;;;;;;4.47;1.70;;;12.30;77.80;;;;;;6086556;23;20400;-45
2023/04/25 12:59:44;;;;;;;3.00;1.80;;;12.40;77.90;;;;;;6087911;23;20365;-44
2023/04/25 13:02:12;;;;;;;3.50;1.47;;;12.30;77.80;;;;;;6086885;23;20918;-45
2023/04/25 13:04:41;;;;;;;2.30;1.53;;;12.40;77.90;;;;;;6087351;23;20708;-46
2023/04/25 13:07:11;;;;;;;3.20;1.80;;;12.30;77.80;;;;;;6086194;23;20427;-45
2023/04/25 13:09:39;;;;;;;2.63;1.63;;;12.30;78.00;;;;;;6087094;23;20396;-45
2023/04/25 13:12:08;;;;;;;4.33;1.80;;;12.30;78.10;;;;;;6084606;23;20492;-44
2023/04/25 13:14:37;;;;;;;2.00;1.70;;;12.30;78.00;;;;;;6089588;23;20456;-43
2023/04/25 13:17:05;;;;;;;2.73;1.50;;;12.30;78.20;;;;;;6087375;23;20380;-44